KHSB/HSB METAR and TAF weather

Enter ICAO airport designator
Station Type Date Time Source
KHSB METAR 2020/02/25 11:35 UTC NOAA

KHSB 251135Z AUTO 31005KT 3SM -DZ OVC002 07/07 A2971 RMK AO2 T00720068


Station Type Date Time Source
KHSB Decoded METAR 2020/02/25 11:35 UTC NOAA

Harrisburg, Harrisburg-Raleigh Airport, IL, United States (KHSB) 37-48-41N 088-32-57W
Feb 25, 2020 - 06:35 AM EST / 2020.02.25 1135 UTC
Wind: from the NW (310 degrees) at 6 MPH (5 KT):0
Visibility: 3 mile(s):0
Sky conditions: overcast
Weather: light drizzle
Temperature: 45.0 F (7.2 C)
Dew Point: 44.2 F (6.8 C)
Relative Humidity: 97%
Pressure (altimeter): 29.71 in. Hg (1006 hPa)
ob: KHSB 251135Z AUTO 31005KT 3SM -DZ OVC002 07/07 A2971 RMK AO2 T00720068
cycle: 11

Station Type Date Time Source
KHSB TAF UTC NOAA

Error!

Example: see airport list